sensor_id;sensor_type;location;lat;lon;timestamp;P1;durP1;ratioP1;P2;durP2;ratioP2
6342;SDS011;3204;42.698;23.298;2022-07-29T00:01:20;11.20;;;10.13;;
6342;SDS011;3204;42.698;23.298;2022-07-29T00:03:46;10.68;;;9.80;;
6342;SDS011;3204;42.698;23.298;2022-07-29T00:06:12;10.27;;;9.57;;
6342;SDS011;3204;42.698;23.298;2022-07-29T00:08:38;9.88;;;9.18;;
6342;SDS011;3204;42.698;23.298;2022-07-29T00:11:03;10.60;;;9.75;;
6342;SDS011;3204;42.698;23.298;2022-07-29T00:13:29;10.63;;;9.93;;
6342;SDS011;3204;42.698;23.298;2022-07-29T00:15:55;9.70;;;9.02;;
6342;SDS011;3204;42.698;23.298;2022-07-29T00:18:20;10.18;;;9.48;;
6342;SDS011;3204;42.698;23.298;2022-07-29T00:20:45;11.98;;;9.77;;
6342;SDS011;3204;42.698;23.298;2022-07-29T00:23:11;11.15;;;9.98;;
6342;SDS011;3204;42.698;23.298;2022-07-29T00:25:36;10.35;;;9.75;;
6342;SDS011;3204;42.698;23.298;2022-07-29T00:28:02;10.40;;;9.60;;
6342;SDS011;3204;42.698;23.298;2022-07-29T00:30:28;10.90;;;10.05;;
6342;SDS011;3204;42.698;23.298;2022-07-29T00:32:53;11.07;;;10.18;;
6342;SDS011;3204;42.698;23.298;2022-07-29T00:35:19;11.60;;;10.60;;
6342;SDS011;3204;42.698;23.298;2022-07-29T00:38:03;11.63;;;10.85;;
6342;SDS011;3204;42.698;23.298;2022-07-29T00:40:28;12.90;;;11.55;;
6342;SDS011;3204;42.698;23.298;2022-07-29T00:42:54;14.10;;;12.25;;
6342;SDS011;3204;42.698;23.298;2022-07-29T00:45:20;13.57;;;12.25;;
6342;SDS011;3204;42.698;23.298;2022-07-29T00:47:46;13.68;;;12.55;;
6342;SDS011;3204;42.698;23.298;2022-07-29T00:50:12;13.45;;;12.30;;
6342;SDS011;3204;42.698;23.298;2022-07-29T00:52:39;13.10;;;12.07;;
6342;SDS011;3204;42.698;23.298;2022-07-29T00:55:07;12.52;;;11.52;;
6342;SDS011;3204;42.698;23.298;2022-07-29T00:57:34;12.50;;;11.57;;
6342;SDS011;3204;42.698;23.298;2022-07-29T01:00:02;13.18;;;11.93;;
6342;SDS011;3204;42.698;23.298;2022-07-29T01:02:29;13.05;;;11.98;;
6342;SDS011;3204;42.698;23.298;2022-07-29T01:04:55;13.90;;;12.23;;
6342;SDS011;3204;42.698;23.298;2022-07-29T01:07:22;14.85;;;12.30;;
6342;SDS011;3204;42.698;23.298;2022-07-29T01:09:50;13.05;;;11.95;;
6342;SDS011;3204;42.698;23.298;2022-07-29T01:12:20;14.40;;;12.98;;
6342;SDS011;3204;42.698;23.298;2022-07-29T01:14:49;13.20;;;12.20;;
6342;SDS011;3204;42.698;23.298;2022-07-29T01:17:34;13.77;;;12.38;;
6342;SDS011;3204;42.698;23.298;2022-07-29T01:31:06;13.13;;;11.98;;
6342;SDS011;3204;42.698;23.298;2022-07-29T01:33:37;13.05;;;12.00;;
6342;SDS011;3204;42.698;23.298;2022-07-29T01:36:17;14.18;;;12.90;;
6342;SDS011;3204;42.698;23.298;2022-07-29T01:38:52;13.32;;;11.93;;
6342;SDS011;3204;42.698;23.298;2022-07-29T01:41:24;13.85;;;12.38;;
6342;SDS011;3204;42.698;23.298;2022-07-29T01:43:54;14.02;;;12.63;;
6342;SDS011;3204;42.698;23.298;2022-07-29T01:46:27;13.38;;;12.07;;
6342;SDS011;3204;42.698;23.298;2022-07-29T01:49:01;14.88;;;13.13;;
6342;SDS011;3204;42.698;23.298;2022-07-29T01:51:41;13.88;;;12.55;;
6342;SDS011;3204;42.698;23.298;2022-07-29T01:54:14;15.48;;;13.02;;
6342;SDS011;3204;42.698;23.298;2022-07-29T01:56:45;14.55;;;13.05;;
6342;SDS011;3204;42.698;23.298;2022-07-29T01:59:13;13.57;;;12.18;;
6342;SDS011;3204;42.698;23.298;2022-07-29T02:01:41;13.48;;;12.40;;
6342;SDS011;3204;42.698;23.298;2022-07-29T02:04:07;15.70;;;12.57;;
6342;SDS011;3204;42.698;23.298;2022-07-29T02:06:36;17.10;;;13.30;;
6342;SDS011;3204;42.698;23.298;2022-07-29T02:09:03;13.82;;;12.57;;
6342;SDS011;3204;42.698;23.298;2022-07-29T02:11:29;13.65;;;12.45;;
6342;SDS011;3204;42.698;23.298;2022-07-29T02:13:58;13.82;;;12.35;;
6342;SDS011;3204;42.698;23.298;2022-07-29T02:16:26;12.82;;;11.60;;
6342;SDS011;3204;42.698;23.298;2022-07-29T02:18:56;12.90;;;11.82;;
6342;SDS011;3204;42.698;23.298;2022-07-29T02:21:25;13.27;;;11.98;;
6342;SDS011;3204;42.698;23.298;2022-07-29T02:23:53;13.52;;;12.35;;
6342;SDS011;3204;42.698;23.298;2022-07-29T02:26:21;14.20;;;11.82;;
6342;SDS011;3204;42.698;23.298;2022-07-29T02:28:48;12.82;;;11.73;;
6342;SDS011;3204;42.698;23.298;2022-07-29T02:31:16;13.98;;;12.65;;
6342;SDS011;3204;42.698;23.298;2022-07-29T02:33:44;12.00;;;11.10;;
6342;SDS011;3204;42.698;23.298;2022-07-29T02:36:11;12.98;;;11.63;;
6342;SDS011;3204;42.698;23.298;2022-07-29T02:38:36;13.05;;;11.90;;
6342;SDS011;3204;42.698;23.298;2022-07-29T02:41:16;13.23;;;12.18;;
6342;SDS011;3204;42.698;23.298;2022-07-29T02:43:45;12.07;;;11.00;;
6342;SDS011;3204;42.698;23.298;2022-07-29T02:46:16;14.15;;;11.00;;
6342;SDS011;3204;42.698;23.298;2022-07-29T02:48:49;11.82;;;10.68;;
6342;SDS011;3204;42.698;23.298;2022-07-29T02:51:23;12.40;;;11.23;;
6342;SDS011;3204;42.698;23.298;2022-07-29T02:54:06;14.23;;;12.30;;
6342;SDS011;3204;42.698;23.298;2022-07-29T02:56:34;14.90;;;12.40;;
6342;SDS011;3204;42.698;23.298;2022-07-29T02:59:02;13.93;;;12.63;;
6342;SDS011;3204;42.698;23.298;2022-07-29T03:01:32;14.10;;;12.70;;
6342;SDS011;3204;42.698;23.298;2022-07-29T03:04:00;14.95;;;13.60;;
6342;SDS011;3204;42.698;23.298;2022-07-29T03:06:29;16.55;;;14.95;;
6342;SDS011;3204;42.698;23.298;2022-07-29T03:08:57;17.08;;;15.48;;
6342;SDS011;3204;42.698;23.298;2022-07-29T03:11:24;18.05;;;15.27;;
6342;SDS011;3204;42.698;23.298;2022-07-29T03:13:50;18.20;;;16.02;;
6342;SDS011;3204;42.698;23.298;2022-07-29T03:16:18;20.00;;;16.50;;
6342;SDS011;3204;42.698;23.298;2022-07-29T03:18:44;19.05;;;16.55;;
6342;SDS011;3204;42.698;23.298;2022-07-29T03:21:10;24.83;;;16.35;;
6342;SDS011;3204;42.698;23.298;2022-07-29T03:23:36;20.08;;;16.05;;
6342;SDS011;3204;42.698;23.298;2022-07-29T03:26:01;18.10;;;16.27;;
6342;SDS011;3204;42.698;23.298;2022-07-29T03:28:27;16.83;;;15.23;;
6342;SDS011;3204;42.698;23.298;2022-07-29T03:30:53;16.52;;;14.77;;
6342;SDS011;3204;42.698;23.298;2022-07-29T03:33:18;16.63;;;13.02;;
6342;SDS011;3204;42.698;23.298;2022-07-29T03:35:44;14.27;;;12.70;;
6342;SDS011;3204;42.698;23.298;2022-07-29T03:38:10;19.40;;;15.32;;
6342;SDS011;3204;42.698;23.298;2022-07-29T03:40:37;18.80;;;15.52;;
6342;SDS011;3204;42.698;23.298;2022-07-29T03:43:07;20.52;;;15.73;;
6342;SDS011;3204;42.698;23.298;2022-07-29T03:45:34;21.27;;;15.50;;
6342;SDS011;3204;42.698;23.298;2022-07-29T03:48:03;17.63;;;15.32;;
6342;SDS011;3204;42.698;23.298;2022-07-29T03:50:35;16.08;;;14.48;;
6342;SDS011;3204;42.698;23.298;2022-07-29T03:53:01;20.50;;;14.60;;
6342;SDS011;3204;42.698;23.298;2022-07-29T03:55:28;15.65;;;13.88;;
6342;SDS011;3204;42.698;23.298;2022-07-29T03:57:57;21.05;;;16.77;;
6342;SDS011;3204;42.698;23.298;2022-07-29T04:00:24;17.75;;;15.57;;
6342;SDS011;3204;42.698;23.298;2022-07-29T04:02:51;18.80;;;15.63;;
6342;SDS011;3204;42.698;23.298;2022-07-29T04:05:17;14.65;;;13.27;;
6342;SDS011;3204;42.698;23.298;2022-07-29T04:07:43;16.85;;;15.07;;
6342;SDS011;3204;42.698;23.298;2022-07-29T04:10:10;22.60;;;15.23;;
6342;SDS011;3204;42.698;23.298;2022-07-29T04:12:35;16.63;;;14.70;;
6342;SDS011;3204;42.698;23.298;2022-07-29T04:15:02;17.60;;;15.38;;
6342;SDS011;3204;42.698;23.298;2022-07-29T04:17:30;15.85;;;14.25;;
6342;SDS011;3204;42.698;23.298;2022-07-29T04:19:56;14.85;;;13.38;;
6342;SDS011;3204;42.698;23.298;2022-07-29T04:22:21;17.73;;;14.65;;
6342;SDS011;3204;42.698;23.298;2022-07-29T04:24:47;20.30;;;14.80;;
6342;SDS011;3204;42.698;23.298;2022-07-29T04:27:12;19.92;;;15.55;;
6342;SDS011;3204;42.698;23.298;2022-07-29T04:29:37;17.55;;;15.50;;
6342;SDS011;3204;42.698;23.298;2022-07-29T04:32:03;18.33;;;15.27;;
6342;SDS011;3204;42.698;23.298;2022-07-29T04:34:29;21.48;;;15.07;;
6342;SDS011;3204;42.698;23.298;2022-07-29T04:36:55;16.25;;;14.75;;
6342;SDS011;3204;42.698;23.298;2022-07-29T04:39:20;16.33;;;14.63;;
6342;SDS011;3204;42.698;23.298;2022-07-29T04:41:46;16.27;;;14.45;;
6342;SDS011;3204;42.698;23.298;2022-07-29T04:44:12;17.70;;;15.55;;
6342;SDS011;3204;42.698;23.298;2022-07-29T04:46:37;17.65;;;13.85;;
6342;SDS011;3204;42.698;23.298;2022-07-29T04:49:03;17.25;;;15.52;;
6342;SDS011;3204;42.698;23.298;2022-07-29T04:51:29;18.45;;;15.27;;
6342;SDS011;3204;42.698;23.298;2022-07-29T04:53:54;22.90;;;15.32;;
6342;SDS011;3204;42.698;23.298;2022-07-29T04:56:20;19.27;;;14.40;;
6342;SDS011;3204;42.698;23.298;2022-07-29T04:58:45;17.30;;;14.25;;
6342;SDS011;3204;42.698;23.298;2022-07-29T05:01:11;16.02;;;13.75;;
6342;SDS011;3204;42.698;23.298;2022-07-29T05:03:36;17.65;;;14.55;;
6342;SDS011;3204;42.698;23.298;2022-07-29T05:06:02;18.95;;;14.60;;
6342;SDS011;3204;42.698;23.298;2022-07-29T05:08:27;16.45;;;14.68;;
6342;SDS011;3204;42.698;23.298;2022-07-29T05:10:53;15.35;;;13.73;;
6342;SDS011;3204;42.698;23.298;2022-07-29T05:13:18;21.00;;;14.43;;
6342;SDS011;3204;42.698;23.298;2022-07-29T05:15:44;13.85;;;12.48;;
6342;SDS011;3204;42.698;23.298;2022-07-29T05:18:09;15.52;;;13.98;;
6342;SDS011;3204;42.698;23.298;2022-07-29T05:20:35;16.40;;;14.27;;
6342;SDS011;3204;42.698;23.298;2022-07-29T05:23:01;20.33;;;13.48;;
6342;SDS011;3204;42.698;23.298;2022-07-29T05:25:27;13.23;;;12.10;;
6342;SDS011;3204;42.698;23.298;2022-07-29T05:27:54;13.95;;;12.57;;
6342;SDS011;3204;42.698;23.298;2022-07-29T05:30:20;10.93;;;10.10;;
6342;SDS011;3204;42.698;23.298;2022-07-29T05:32:45;11.13;;;9.90;;
6342;SDS011;3204;42.698;23.298;2022-07-29T05:35:11;10.80;;;9.50;;
6342;SDS011;3204;42.698;23.298;2022-07-29T05:37:38;10.13;;;9.05;;
6342;SDS011;3204;42.698;23.298;2022-07-29T05:40:04;9.38;;;8.73;;
6342;SDS011;3204;42.698;23.298;2022-07-29T05:42:30;8.68;;;7.85;;
6342;SDS011;3204;42.698;23.298;2022-07-29T05:44:55;8.00;;;7.40;;
6342;SDS011;3204;42.698;23.298;2022-07-29T05:47:21;8.65;;;8.18;;
6342;SDS011;3204;42.698;23.298;2022-07-29T05:49:48;9.05;;;8.35;;
6342;SDS011;3204;42.698;23.298;2022-07-29T05:52:13;9.95;;;8.95;;
6342;SDS011;3204;42.698;23.298;2022-07-29T05:54:39;9.25;;;8.40;;
6342;SDS011;3204;42.698;23.298;2022-07-29T05:57:04;9.52;;;8.65;;
6342;SDS011;3204;42.698;23.298;2022-07-29T05:59:30;8.63;;;7.97;;
6342;SDS011;3204;42.698;23.298;2022-07-29T06:01:57;9.25;;;8.30;;
6342;SDS011;3204;42.698;23.298;2022-07-29T06:04:22;9.25;;;8.57;;
6342;SDS011;3204;42.698;23.298;2022-07-29T06:06:48;9.18;;;8.68;;
6342;SDS011;3204;42.698;23.298;2022-07-29T06:09:13;9.20;;;8.50;;
6342;SDS011;3204;42.698;23.298;2022-07-29T06:11:39;9.48;;;8.85;;
6342;SDS011;3204;42.698;23.298;2022-07-29T06:14:05;12.80;;;8.68;;
6342;SDS011;3204;42.698;23.298;2022-07-29T06:16:30;9.43;;;8.50;;
6342;SDS011;3204;42.698;23.298;2022-07-29T06:18:56;9.13;;;8.00;;
6342;SDS011;3204;42.698;23.298;2022-07-29T06:21:22;8.00;;;7.43;;
6342;SDS011;3204;42.698;23.298;2022-07-29T06:23:47;8.20;;;7.50;;
6342;SDS011;3204;42.698;23.298;2022-07-29T06:26:13;7.80;;;7.25;;
6342;SDS011;3204;42.698;23.298;2022-07-29T06:28:38;7.55;;;7.15;;
6342;SDS011;3204;42.698;23.298;2022-07-29T06:31:04;8.40;;;7.88;;
6342;SDS011;3204;42.698;23.298;2022-07-29T06:33:30;7.70;;;7.30;;
6342;SDS011;3204;42.698;23.298;2022-07-29T06:35:56;7.75;;;7.10;;
6342;SDS011;3204;42.698;23.298;2022-07-29T06:38:21;7.63;;;7.13;;
6342;SDS011;3204;42.698;23.298;2022-07-29T06:40:47;8.18;;;7.57;;
6342;SDS011;3204;42.698;23.298;2022-07-29T06:46:15;7.13;;;6.82;;
6342;SDS011;3204;42.698;23.298;2022-07-29T06:48:44;6.75;;;6.35;;
6342;SDS011;3204;42.698;23.298;2022-07-29T06:51:10;7.60;;;7.00;;
6342;SDS011;3204;42.698;23.298;2022-07-29T06:53:37;7.65;;;7.15;;
6342;SDS011;3204;42.698;23.298;2022-07-29T06:56:04;8.93;;;6.30;;
6342;SDS011;3204;42.698;23.298;2022-07-29T06:58:30;6.50;;;6.00;;
6342;SDS011;3204;42.698;23.298;2022-07-29T07:00:57;6.65;;;6.05;;
6342;SDS011;3204;42.698;23.298;2022-07-29T07:03:23;6.43;;;5.75;;
6342;SDS011;3204;42.698;23.298;2022-07-29T07:05:49;6.63;;;6.00;;
6342;SDS011;3204;42.698;23.298;2022-07-29T07:08:17;6.53;;;6.20;;
6342;SDS011;3204;42.698;23.298;2022-07-29T07:10:42;6.53;;;6.13;;
6342;SDS011;3204;42.698;23.298;2022-07-29T07:13:08;6.70;;;6.30;;
6342;SDS011;3204;42.698;23.298;2022-07-29T07:15:33;7.28;;;6.40;;
6342;SDS011;3204;42.698;23.298;2022-07-29T07:18:00;6.05;;;5.55;;
6342;SDS011;3204;42.698;23.298;2022-07-29T07:20:25;5.85;;;5.40;;
6342;SDS011;3204;42.698;23.298;2022-07-29T07:22:51;5.15;;;4.82;;
6342;SDS011;3204;42.698;23.298;2022-07-29T07:25:16;5.28;;;5.00;;
6342;SDS011;3204;42.698;23.298;2022-07-29T07:27:42;5.50;;;5.10;;
6342;SDS011;3204;42.698;23.298;2022-07-29T07:30:09;6.13;;;5.63;;
6342;SDS011;3204;42.698;23.298;2022-07-29T07:32:35;7.15;;;5.82;;
6342;SDS011;3204;42.698;23.298;2022-07-29T07:35:00;5.65;;;5.30;;
6342;SDS011;3204;42.698;23.298;2022-07-29T07:37:26;5.60;;;5.30;;
6342;SDS011;3204;42.698;23.298;2022-07-29T07:39:52;5.45;;;5.18;;
6342;SDS011;3204;42.698;23.298;2022-07-29T07:42:18;6.07;;;5.55;;
6342;SDS011;3204;42.698;23.298;2022-07-29T07:44:44;5.88;;;5.35;;
6342;SDS011;3204;42.698;23.298;2022-07-29T07:47:10;5.35;;;5.05;;
6342;SDS011;3204;42.698;23.298;2022-07-29T07:49:36;8.40;;;4.68;;
6342;SDS011;3204;42.698;23.298;2022-07-29T07:52:03;5.80;;;5.40;;
6342;SDS011;3204;42.698;23.298;2022-07-29T07:54:29;4.88;;;4.68;;
6342;SDS011;3204;42.698;23.298;2022-07-29T07:56:54;5.03;;;4.80;;
6342;SDS011;3204;42.698;23.298;2022-07-29T07:59:20;5.20;;;4.80;;
6342;SDS011;3204;42.698;23.298;2022-07-29T08:01:45;4.95;;;4.65;;
6342;SDS011;3204;42.698;23.298;2022-07-29T08:04:11;4.97;;;4.78;;
6342;SDS011;3204;42.698;23.298;2022-07-29T08:06:36;5.40;;;4.90;;
6342;SDS011;3204;42.698;23.298;2022-07-29T08:09:05;5.10;;;4.80;;
6342;SDS011;3204;42.698;23.298;2022-07-29T08:11:31;4.75;;;4.55;;
6342;SDS011;3204;42.698;23.298;2022-07-29T08:13:56;5.85;;;5.28;;
6342;SDS011;3204;42.698;23.298;2022-07-29T08:16:22;7.05;;;4.68;;
6342;SDS011;3204;42.698;23.298;2022-07-29T08:18:50;5.30;;;4.93;;
6342;SDS011;3204;42.698;23.298;2022-07-29T08:21:16;5.15;;;4.80;;
6342;SDS011;3204;42.698;23.298;2022-07-29T08:23:43;5.47;;;4.82;;
6342;SDS011;3204;42.698;23.298;2022-07-29T08:26:15;4.95;;;4.65;;
6342;SDS011;3204;42.698;23.298;2022-07-29T08:28:42;4.30;;;4.10;;
6342;SDS011;3204;42.698;23.298;2022-07-29T08:31:11;4.45;;;4.10;;
6342;SDS011;3204;42.698;23.298;2022-07-29T08:33:37;4.65;;;4.35;;
6342;SDS011;3204;42.698;23.298;2022-07-29T08:36:04;4.80;;;4.60;;
6342;SDS011;3204;42.698;23.298;2022-07-29T08:38:30;5.22;;;4.65;;
6342;SDS011;3204;42.698;23.298;2022-07-29T08:40:56;4.75;;;4.47;;
6342;SDS011;3204;42.698;23.298;2022-07-29T08:43:21;4.22;;;3.88;;
6342;SDS011;3204;42.698;23.298;2022-07-29T08:45:48;4.07;;;3.88;;
6342;SDS011;3204;42.698;23.298;2022-07-29T08:48:19;4.00;;;3.78;;
6342;SDS011;3204;42.698;23.298;2022-07-29T08:50:52;4.75;;;4.53;;
6342;SDS011;3204;42.698;23.298;2022-07-29T08:53:20;4.75;;;4.15;;
6342;SDS011;3204;42.698;23.298;2022-07-29T08:55:47;4.32;;;4.00;;
6342;SDS011;3204;42.698;23.298;2022-07-29T08:58:14;3.58;;;3.40;;
6342;SDS011;3204;42.698;23.298;2022-07-29T09:00:41;5.32;;;3.78;;
6342;SDS011;3204;42.698;23.298;2022-07-29T09:03:12;4.13;;;3.80;;
6342;SDS011;3204;42.698;23.298;2022-07-29T09:05:41;4.05;;;3.85;;
6342;SDS011;3204;42.698;23.298;2022-07-29T09:08:08;3.72;;;3.38;;
6342;SDS011;3204;42.698;23.298;2022-07-29T09:10:36;3.65;;;3.45;;
6342;SDS011;3204;42.698;23.298;2022-07-29T09:13:02;3.67;;;3.47;;
6342;SDS011;3204;42.698;23.298;2022-07-29T09:15:28;3.47;;;3.33;;
6342;SDS011;3204;42.698;23.298;2022-07-29T09:17:54;4.47;;;3.60;;
6342;SDS011;3204;42.698;23.298;2022-07-29T09:20:21;4.03;;;3.72;;
6342;SDS011;3204;42.698;23.298;2022-07-29T09:22:47;3.83;;;3.63;;
6342;SDS011;3204;42.698;23.298;2022-07-29T09:25:15;4.30;;;4.10;;
6342;SDS011;3204;42.698;23.298;2022-07-29T09:28:07;5.72;;;3.95;;
6342;SDS011;3204;42.698;23.298;2022-07-29T09:30:50;3.80;;;3.60;;
6342;SDS011;3204;42.698;23.298;2022-07-29T09:33:23;5.50;;;4.32;;
6342;SDS011;3204;42.698;23.298;2022-07-29T09:36:05;4.07;;;3.92;;
6342;SDS011;3204;42.698;23.298;2022-07-29T09:38:32;4.10;;;3.88;;
6342;SDS011;3204;42.698;23.298;2022-07-29T09:40:59;4.03;;;3.78;;
6342;SDS011;3204;42.698;23.298;2022-07-29T09:43:25;4.68;;;3.72;;
6342;SDS011;3204;42.698;23.298;2022-07-29T09:45:51;4.22;;;3.92;;
6342;SDS011;3204;42.698;23.298;2022-07-29T09:48:21;4.47;;;4.15;;
6342;SDS011;3204;42.698;23.298;2022-07-29T09:50:47;5.00;;;3.92;;
6342;SDS011;3204;42.698;23.298;2022-07-29T09:56:02;5.03;;;4.68;;
6342;SDS011;3204;42.698;23.298;2022-07-29T09:58:28;3.97;;;3.78;;
6342;SDS011;3204;42.698;23.298;2022-07-29T10:00:55;4.45;;;4.10;;
6342;SDS011;3204;42.698;23.298;2022-07-29T10:03:21;5.63;;;5.28;;
6342;SDS011;3204;42.698;23.298;2022-07-29T10:06:04;7.25;;;4.78;;
6342;SDS011;3204;42.698;23.298;2022-07-29T10:08:29;6.05;;;4.40;;
6342;SDS011;3204;42.698;23.298;2022-07-29T10:11:08;4.43;;;4.22;;
6342;SDS011;3204;42.698;23.298;2022-07-29T10:13:36;5.90;;;3.92;;
6342;SDS011;3204;42.698;23.298;2022-07-29T10:16:02;4.72;;;4.43;;
6342;SDS011;3204;42.698;23.298;2022-07-29T10:18:28;4.07;;;3.85;;
6342;SDS011;3204;42.698;23.298;2022-07-29T10:20:54;4.30;;;4.10;;
6342;SDS011;3204;42.698;23.298;2022-07-29T10:23:21;5.63;;;4.00;;
6342;SDS011;3204;42.698;23.298;2022-07-29T10:25:48;3.78;;;3.38;;
6342;SDS011;3204;42.698;23.298;2022-07-29T10:28:14;4.60;;;4.30;;
6342;SDS011;3204;42.698;23.298;2022-07-29T10:30:40;4.72;;;4.28;;
6342;SDS011;3204;42.698;23.298;2022-07-29T10:38:52;4.65;;;4.00;;
6342;SDS011;3204;42.698;23.298;2022-07-29T10:44:15;5.35;;;4.30;;
6342;SDS011;3204;42.698;23.298;2022-07-29T10:46:43;6.35;;;4.25;;
6342;SDS011;3204;42.698;23.298;2022-07-29T10:52:10;3.83;;;3.53;;
6342;SDS011;3204;42.698;23.298;2022-07-29T10:59:38;10.10;;;3.42;;
6342;SDS011;3204;42.698;23.298;2022-07-29T11:05:13;4.30;;;3.63;;
6342;SDS011;3204;42.698;23.298;2022-07-29T11:10:38;5.18;;;4.90;;
6342;SDS011;3204;42.698;23.298;2022-07-29T11:13:05;3.97;;;3.78;;
6342;SDS011;3204;42.698;23.298;2022-07-29T11:15:45;4.00;;;3.67;;
6342;SDS011;3204;42.698;23.298;2022-07-29T11:18:22;4.50;;;4.20;;
6342;SDS011;3204;42.698;23.298;2022-07-29T11:20:48;4.72;;;4.40;;
6342;SDS011;3204;42.698;23.298;2022-07-29T11:34:25;4.68;;;4.10;;
6342;SDS011;3204;42.698;23.298;2022-07-29T11:39:35;4.20;;;3.90;;
6342;SDS011;3204;42.698;23.298;2022-07-29T11:44:59;4.50;;;4.10;;
6342;SDS011;3204;42.698;23.298;2022-07-29T11:47:30;5.95;;;4.30;;
6342;SDS011;3204;42.698;23.298;2022-07-29T11:49:58;4.35;;;4.15;;
6342;SDS011;3204;42.698;23.298;2022-07-29T11:52:35;4.95;;;4.50;;
6342;SDS011;3204;42.698;23.298;2022-07-29T11:55:08;5.00;;;4.68;;
6342;SDS011;3204;42.698;23.298;2022-07-29T11:57:35;4.07;;;3.88;;
6342;SDS011;3204;42.698;23.298;2022-07-29T12:00:02;4.65;;;4.35;;
6342;SDS011;3204;42.698;23.298;2022-07-29T12:02:41;5.53;;;5.32;;
6342;SDS011;3204;42.698;23.298;2022-07-29T12:05:08;4.90;;;4.50;;
6342;SDS011;3204;42.698;23.298;2022-07-29T12:07:36;4.45;;;4.25;;
6342;SDS011;3204;42.698;23.298;2022-07-29T12:10:03;4.75;;;4.45;;
6342;SDS011;3204;42.698;23.298;2022-07-29T12:12:29;4.65;;;4.20;;
6342;SDS011;3204;42.698;23.298;2022-07-29T12:14:55;4.88;;;4.63;;
6342;SDS011;3204;42.698;23.298;2022-07-29T12:17:27;4.50;;;4.20;;
6342;SDS011;3204;42.698;23.298;2022-07-29T12:19:55;4.80;;;4.60;;
6342;SDS011;3204;42.698;23.298;2022-07-29T12:22:34;4.78;;;4.57;;
6342;SDS011;3204;42.698;23.298;2022-07-29T12:27:39;4.75;;;4.55;;
6342;SDS011;3204;42.698;23.298;2022-07-29T12:30:06;4.30;;;4.10;;
6342;SDS011;3204;42.698;23.298;2022-07-29T12:32:34;4.47;;;4.28;;
6342;SDS011;3204;42.698;23.298;2022-07-29T12:37:38;5.10;;;4.80;;
6342;SDS011;3204;42.698;23.298;2022-07-29T12:40:06;5.13;;;4.38;;
6342;SDS011;3204;42.698;23.298;2022-07-29T12:42:33;5.18;;;4.68;;
6342;SDS011;3204;42.698;23.298;2022-07-29T12:45:00;5.20;;;5.00;;
6342;SDS011;3204;42.698;23.298;2022-07-29T12:47:26;5.32;;;5.05;;
6342;SDS011;3204;42.698;23.298;2022-07-29T12:50:13;5.20;;;4.90;;
6342;SDS011;3204;42.698;23.298;2022-07-29T12:52:43;5.50;;;5.10;;
6342;SDS011;3204;42.698;23.298;2022-07-29T12:55:09;6.15;;;5.70;;
6342;SDS011;3204;42.698;23.298;2022-07-29T12:57:45;5.30;;;4.80;;
6342;SDS011;3204;42.698;23.298;2022-07-29T13:00:12;8.43;;;5.03;;
6342;SDS011;3204;42.698;23.298;2022-07-29T13:02:40;5.82;;;5.43;;
6342;SDS011;3204;42.698;23.298;2022-07-29T13:05:07;5.60;;;5.22;;
6342;SDS011;3204;42.698;23.298;2022-07-29T13:07:34;5.97;;;5.47;;
6342;SDS011;3204;42.698;23.298;2022-07-29T13:12:40;5.43;;;5.07;;
6342;SDS011;3204;42.698;23.298;2022-07-29T13:15:33;5.70;;;5.40;;
6342;SDS011;3204;42.698;23.298;2022-07-29T13:17:59;6.53;;;6.03;;
6342;SDS011;3204;42.698;23.298;2022-07-29T13:20:26;7.18;;;5.75;;
6342;SDS011;3204;42.698;23.298;2022-07-29T13:22:54;6.07;;;5.78;;
6342;SDS011;3204;42.698;23.298;2022-07-29T13:25:28;9.63;;;9.20;;
6342;SDS011;3204;42.698;23.298;2022-07-29T13:27:55;6.07;;;5.72;;
6342;SDS011;3204;42.698;23.298;2022-07-29T13:30:21;5.22;;;5.00;;
6342;SDS011;3204;42.698;23.298;2022-07-29T13:32:48;5.30;;;5.10;;
6342;SDS011;3204;42.698;23.298;2022-07-29T13:35:14;5.50;;;5.20;;
6342;SDS011;3204;42.698;23.298;2022-07-29T13:37:39;5.88;;;5.55;;
6342;SDS011;3204;42.698;23.298;2022-07-29T13:40:06;5.88;;;5.57;;
6342;SDS011;3204;42.698;23.298;2022-07-29T13:42:33;6.20;;;5.60;;
6342;SDS011;3204;42.698;23.298;2022-07-29T13:44:59;5.47;;;5.25;;
6342;SDS011;3204;42.698;23.298;2022-07-29T13:47:25;6.20;;;5.63;;
6342;SDS011;3204;42.698;23.298;2022-07-29T13:49:51;5.40;;;5.10;;
6342;SDS011;3204;42.698;23.298;2022-07-29T13:52:18;5.60;;;5.13;;
6342;SDS011;3204;42.698;23.298;2022-07-29T13:54:43;5.45;;;5.25;;
6342;SDS011;3204;42.698;23.298;2022-07-29T13:57:09;5.40;;;5.10;;
6342;SDS011;3204;42.698;23.298;2022-07-29T13:59:36;5.63;;;5.43;;
6342;SDS011;3204;42.698;23.298;2022-07-29T14:02:02;5.85;;;5.45;;
6342;SDS011;3204;42.698;23.298;2022-07-29T14:04:27;6.13;;;5.72;;
6342;SDS011;3204;42.698;23.298;2022-07-29T14:06:53;5.30;;;5.00;;
6342;SDS011;3204;42.698;23.298;2022-07-29T14:09:18;5.57;;;5.30;;
6342;SDS011;3204;42.698;23.298;2022-07-29T14:11:45;5.55;;;5.25;;
6342;SDS011;3204;42.698;23.298;2022-07-29T14:14:11;5.43;;;5.10;;
6342;SDS011;3204;42.698;23.298;2022-07-29T14:16:36;5.25;;;5.05;;
6342;SDS011;3204;42.698;23.298;2022-07-29T14:19:02;5.55;;;5.18;;
6342;SDS011;3204;42.698;23.298;2022-07-29T14:21:28;5.75;;;5.45;;
6342;SDS011;3204;42.698;23.298;2022-07-29T14:23:53;5.30;;;5.00;;
6342;SDS011;3204;42.698;23.298;2022-07-29T14:26:20;5.88;;;5.47;;
6342;SDS011;3204;42.698;23.298;2022-07-29T14:28:47;4.85;;;4.65;;
6342;SDS011;3204;42.698;23.298;2022-07-29T14:31:12;5.35;;;4.97;;
6342;SDS011;3204;42.698;23.298;2022-07-29T14:33:38;5.47;;;5.18;;
6342;SDS011;3204;42.698;23.298;2022-07-29T14:36:04;5.32;;;5.10;;
6342;SDS011;3204;42.698;23.298;2022-07-29T14:38:30;5.18;;;4.97;;
6342;SDS011;3204;42.698;23.298;2022-07-29T14:40:55;5.80;;;5.50;;
6342;SDS011;3204;42.698;23.298;2022-07-29T14:43:21;6.13;;;5.03;;
6342;SDS011;3204;42.698;23.298;2022-07-29T14:45:46;5.60;;;5.30;;
6342;SDS011;3204;42.698;23.298;2022-07-29T14:48:12;5.97;;;5.50;;
6342;SDS011;3204;42.698;23.298;2022-07-29T14:50:37;5.22;;;5.03;;
6342;SDS011;3204;42.698;23.298;2022-07-29T14:53:03;5.80;;;5.50;;
6342;SDS011;3204;42.698;23.298;2022-07-29T14:55:29;5.63;;;5.43;;
6342;SDS011;3204;42.698;23.298;2022-07-29T14:57:55;5.70;;;5.40;;
6342;SDS011;3204;42.698;23.298;2022-07-29T15:00:20;5.82;;;5.53;;
6342;SDS011;3204;42.698;23.298;2022-07-29T15:02:47;5.50;;;5.20;;
6342;SDS011;3204;42.698;23.298;2022-07-29T15:05:12;5.40;;;4.97;;
6342;SDS011;3204;42.698;23.298;2022-07-29T15:07:38;5.43;;;5.13;;
6342;SDS011;3204;42.698;23.298;2022-07-29T15:10:04;5.50;;;5.20;;
6342;SDS011;3204;42.698;23.298;2022-07-29T15:12:31;5.28;;;5.07;;
6342;SDS011;3204;42.698;23.298;2022-07-29T15:14:56;5.30;;;5.07;;
6342;SDS011;3204;42.698;23.298;2022-07-29T15:17:22;7.00;;;6.40;;
6342;SDS011;3204;42.698;23.298;2022-07-29T15:19:47;5.10;;;4.90;;
6342;SDS011;3204;42.698;23.298;2022-07-29T15:22:13;5.55;;;5.15;;
6342;SDS011;3204;42.698;23.298;2022-07-29T15:24:39;5.90;;;5.50;;
6342;SDS011;3204;42.698;23.298;2022-07-29T15:27:04;5.93;;;5.70;;
6342;SDS011;3204;42.698;23.298;2022-07-29T15:29:30;6.40;;;5.97;;
6342;SDS011;3204;42.698;23.298;2022-07-29T15:31:55;5.80;;;5.45;;
6342;SDS011;3204;42.698;23.298;2022-07-29T15:34:21;6.07;;;5.57;;
6342;SDS011;3204;42.698;23.298;2022-07-29T15:36:48;5.70;;;5.40;;
6342;SDS011;3204;42.698;23.298;2022-07-29T15:39:15;6.28;;;5.97;;
6342;SDS011;3204;42.698;23.298;2022-07-29T15:41:41;5.60;;;5.40;;
6342;SDS011;3204;42.698;23.298;2022-07-29T15:44:07;8.65;;;6.15;;
6342;SDS011;3204;42.698;23.298;2022-07-29T15:46:32;6.00;;;5.70;;
6342;SDS011;3204;42.698;23.298;2022-07-29T15:49:17;5.95;;;5.65;;
6342;SDS011;3204;42.698;23.298;2022-07-29T15:51:42;6.13;;;5.82;;
6342;SDS011;3204;42.698;23.298;2022-07-29T15:54:08;5.95;;;5.43;;
6342;SDS011;3204;42.698;23.298;2022-07-29T15:56:33;6.30;;;5.80;;
6342;SDS011;3204;42.698;23.298;2022-07-29T15:58:59;5.85;;;5.53;;